sensor_id;sensor_type;location;lat;lon;timestamp;P1;durP1;ratioP1;P2;durP2;ratioP2
66546;SDS011;53400;50.364;14.874;2022-09-16T00:00:21;6.18;;;2.08;;
66546;SDS011;53400;50.364;14.874;2022-09-16T00:03:09;7.35;;;3.20;;
66546;SDS011;53400;50.364;14.874;2022-09-16T00:05:38;5.53;;;2.20;;
66546;SDS011;53400;50.364;14.874;2022-09-16T00:08:05;4.85;;;2.20;;
66546;SDS011;53400;50.364;14.874;2022-09-16T00:10:31;5.18;;;2.20;;
66546;SDS011;53400;50.364;14.874;2022-09-16T00:12:57;6.97;;;2.35;;
66546;SDS011;53400;50.364;14.874;2022-09-16T00:15:23;7.00;;;2.47;;
66546;SDS011;53400;50.364;14.874;2022-09-16T00:17:48;5.68;;;2.92;;
66546;SDS011;53400;50.364;14.874;2022-09-16T00:20:16;6.63;;;2.47;;
66546;SDS011;53400;50.364;14.874;2022-09-16T00:22:42;6.38;;;2.50;;
66546;SDS011;53400;50.364;14.874;2022-09-16T00:25:08;4.72;;;2.25;;
66546;SDS011;53400;50.364;14.874;2022-09-16T00:27:34;6.55;;;2.50;;
66546;SDS011;53400;50.364;14.874;2022-09-16T00:30:00;6.05;;;2.50;;
66546;SDS011;53400;50.364;14.874;2022-09-16T00:32:26;6.00;;;2.55;;
66546;SDS011;53400;50.364;14.874;2022-09-16T00:34:52;7.82;;;2.40;;
66546;SDS011;53400;50.364;14.874;2022-09-16T00:37:19;6.10;;;2.42;;
66546;SDS011;53400;50.364;14.874;2022-09-16T00:39:46;4.97;;;2.03;;
66546;SDS011;53400;50.364;14.874;2022-09-16T00:42:13;5.22;;;2.50;;
66546;SDS011;53400;50.364;14.874;2022-09-16T00:44:55;7.40;;;2.50;;
66546;SDS011;53400;50.364;14.874;2022-09-16T00:47:24;5.95;;;2.40;;
66546;SDS011;53400;50.364;14.874;2022-09-16T00:49:54;5.18;;;2.20;;
66546;SDS011;53400;50.364;14.874;2022-09-16T00:52:26;5.38;;;2.13;;
66546;SDS011;53400;50.364;14.874;2022-09-16T00:54:53;6.32;;;2.40;;
66546;SDS011;53400;50.364;14.874;2022-09-16T00:57:19;4.93;;;2.03;;
66546;SDS011;53400;50.364;14.874;2022-09-16T00:59:46;5.18;;;2.58;;
66546;SDS011;53400;50.364;14.874;2022-09-16T01:02:17;6.20;;;2.20;;
66546;SDS011;53400;50.364;14.874;2022-09-16T01:04:45;5.60;;;2.05;;
66546;SDS011;53400;50.364;14.874;2022-09-16T01:07:16;6.05;;;2.08;;
66546;SDS011;53400;50.364;14.874;2022-09-16T01:09:47;7.40;;;2.30;;
66546;SDS011;53400;50.364;14.874;2022-09-16T01:12:13;6.13;;;2.10;;
66546;SDS011;53400;50.364;14.874;2022-09-16T01:14:39;6.72;;;2.20;;
66546;SDS011;53400;50.364;14.874;2022-09-16T01:17:25;5.63;;;2.10;;
66546;SDS011;53400;50.364;14.874;2022-09-16T01:20:20;6.93;;;1.90;;
66546;SDS011;53400;50.364;14.874;2022-09-16T01:23:10;5.35;;;2.00;;
66546;SDS011;53400;50.364;14.874;2022-09-16T01:26:00;6.82;;;2.35;;
66546;SDS011;53400;50.364;14.874;2022-09-16T01:28:50;5.35;;;2.10;;
66546;SDS011;53400;50.364;14.874;2022-09-16T01:31:36;5.00;;;2.13;;
66546;SDS011;53400;50.364;14.874;2022-09-16T01:34:11;5.65;;;2.03;;
66546;SDS011;53400;50.364;14.874;2022-09-16T01:36:47;5.05;;;2.00;;
66546;SDS011;53400;50.364;14.874;2022-09-16T01:39:23;5.10;;;2.03;;
66546;SDS011;53400;50.364;14.874;2022-09-16T01:41:56;6.10;;;1.92;;
66546;SDS011;53400;50.364;14.874;2022-09-16T01:44:34;5.93;;;2.10;;
66546;SDS011;53400;50.364;14.874;2022-09-16T01:47:07;4.55;;;1.77;;
66546;SDS011;53400;50.364;14.874;2022-09-16T01:49:44;7.45;;;2.20;;
66546;SDS011;53400;50.364;14.874;2022-09-16T01:52:22;5.35;;;2.00;;
66546;SDS011;53400;50.364;14.874;2022-09-16T01:54:55;5.38;;;2.20;;
66546;SDS011;53400;50.364;14.874;2022-09-16T01:57:28;6.47;;;2.25;;
66546;SDS011;53400;50.364;14.874;2022-09-16T02:00:03;6.18;;;2.28;;
66546;SDS011;53400;50.364;14.874;2022-09-16T02:02:34;5.72;;;2.45;;
66546;SDS011;53400;50.364;14.874;2022-09-16T02:05:05;6.28;;;2.05;;
66546;SDS011;53400;50.364;14.874;2022-09-16T02:07:37;7.45;;;2.72;;
66546;SDS011;53400;50.364;14.874;2022-09-16T02:10:07;4.93;;;2.15;;
66546;SDS011;53400;50.364;14.874;2022-09-16T02:12:38;4.90;;;2.13;;
66546;SDS011;53400;50.364;14.874;2022-09-16T02:15:07;5.95;;;2.20;;
66546;SDS011;53400;50.364;14.874;2022-09-16T02:17:39;5.47;;;1.98;;
66546;SDS011;53400;50.364;14.874;2022-09-16T02:20:11;4.50;;;2.20;;
66546;SDS011;53400;50.364;14.874;2022-09-16T02:22:42;6.70;;;2.30;;
66546;SDS011;53400;50.364;14.874;2022-09-16T02:25:11;5.32;;;2.13;;
66546;SDS011;53400;50.364;14.874;2022-09-16T02:27:40;5.68;;;2.05;;
66546;SDS011;53400;50.364;14.874;2022-09-16T02:30:10;5.78;;;2.28;;
66546;SDS011;53400;50.364;14.874;2022-09-16T02:32:44;5.90;;;2.45;;
66546;SDS011;53400;50.364;14.874;2022-09-16T02:35:13;5.22;;;2.33;;
66546;SDS011;53400;50.364;14.874;2022-09-16T02:37:41;5.72;;;2.40;;
66546;SDS011;53400;50.364;14.874;2022-09-16T02:40:12;4.55;;;2.13;;
66546;SDS011;53400;50.364;14.874;2022-09-16T02:42:42;5.93;;;2.30;;
66546;SDS011;53400;50.364;14.874;2022-09-16T02:45:09;6.68;;;2.17;;
66546;SDS011;53400;50.364;14.874;2022-09-16T02:47:36;6.53;;;2.50;;
66546;SDS011;53400;50.364;14.874;2022-09-16T02:50:13;5.63;;;2.10;;
66546;SDS011;53400;50.364;14.874;2022-09-16T02:52:42;6.05;;;3.67;;
66546;SDS011;53400;50.364;14.874;2022-09-16T02:55:12;5.10;;;2.35;;
66546;SDS011;53400;50.364;14.874;2022-09-16T02:57:45;4.80;;;2.17;;
66546;SDS011;53400;50.364;14.874;2022-09-16T03:00:11;4.70;;;2.25;;
66546;SDS011;53400;50.364;14.874;2022-09-16T03:02:37;7.85;;;2.67;;
66546;SDS011;53400;50.364;14.874;2022-09-16T03:05:06;7.20;;;2.60;;
66546;SDS011;53400;50.364;14.874;2022-09-16T03:07:34;5.63;;;2.80;;
66546;SDS011;53400;50.364;14.874;2022-09-16T03:10:00;6.15;;;2.35;;
66546;SDS011;53400;50.364;14.874;2022-09-16T03:12:31;9.80;;;3.70;;
66546;SDS011;53400;50.364;14.874;2022-09-16T03:15:16;4.70;;;1.90;;
66546;SDS011;53400;50.364;14.874;2022-09-16T03:18:16;6.15;;;2.25;;
66546;SDS011;53400;50.364;14.874;2022-09-16T03:20:56;5.25;;;2.28;;
66546;SDS011;53400;50.364;14.874;2022-09-16T03:23:28;7.80;;;2.63;;
66546;SDS011;53400;50.364;14.874;2022-09-16T03:26:10;6.78;;;2.70;;
66546;SDS011;53400;50.364;14.874;2022-09-16T03:28:46;5.22;;;2.45;;
66546;SDS011;53400;50.364;14.874;2022-09-16T03:31:20;5.65;;;2.50;;
66546;SDS011;53400;50.364;14.874;2022-09-16T03:33:52;7.30;;;2.50;;
66546;SDS011;53400;50.364;14.874;2022-09-16T03:36:27;5.05;;;2.35;;
66546;SDS011;53400;50.364;14.874;2022-09-16T03:41:25;7.38;;;2.50;;
66546;SDS011;53400;50.364;14.874;2022-09-16T03:43:53;6.68;;;2.70;;
66546;SDS011;53400;50.364;14.874;2022-09-16T03:46:20;5.55;;;2.50;;
66546;SDS011;53400;50.364;14.874;2022-09-16T03:48:46;5.35;;;2.75;;
66546;SDS011;53400;50.364;14.874;2022-09-16T03:51:12;6.72;;;2.70;;
66546;SDS011;53400;50.364;14.874;2022-09-16T03:53:40;5.20;;;2.35;;
66546;SDS011;53400;50.364;14.874;2022-09-16T03:56:06;8.55;;;2.35;;
66546;SDS011;53400;50.364;14.874;2022-09-16T03:58:32;6.28;;;2.45;;
66546;SDS011;53400;50.364;14.874;2022-09-16T04:00:58;6.47;;;2.50;;
66546;SDS011;53400;50.364;14.874;2022-09-16T04:03:24;6.35;;;3.00;;
66546;SDS011;53400;50.364;14.874;2022-09-16T04:05:51;5.68;;;2.60;;
66546;SDS011;53400;50.364;14.874;2022-09-16T04:08:17;6.88;;;2.58;;
66546;SDS011;53400;50.364;14.874;2022-09-16T04:10:53;5.50;;;2.38;;
66546;SDS011;53400;50.364;14.874;2022-09-16T04:13:19;4.80;;;2.50;;
66546;SDS011;53400;50.364;14.874;2022-09-16T04:15:45;5.47;;;2.42;;
66546;SDS011;53400;50.364;14.874;2022-09-16T04:18:11;10.45;;;2.80;;
66546;SDS011;53400;50.364;14.874;2022-09-16T04:20:37;5.50;;;2.03;;
66546;SDS011;53400;50.364;14.874;2022-09-16T04:23:02;6.80;;;2.50;;
66546;SDS011;53400;50.364;14.874;2022-09-16T04:25:28;5.07;;;2.40;;
66546;SDS011;53400;50.364;14.874;2022-09-16T04:27:56;5.60;;;2.40;;
66546;SDS011;53400;50.364;14.874;2022-09-16T04:30:21;6.10;;;2.38;;
66546;SDS011;53400;50.364;14.874;2022-09-16T04:32:51;8.65;;;2.40;;
66546;SDS011;53400;50.364;14.874;2022-09-16T04:35:18;6.65;;;3.10;;
66546;SDS011;53400;50.364;14.874;2022-09-16T04:37:43;6.90;;;2.63;;
66546;SDS011;53400;50.364;14.874;2022-09-16T04:40:09;5.68;;;2.53;;
66546;SDS011;53400;50.364;14.874;2022-09-16T04:42:35;4.75;;;2.53;;
66546;SDS011;53400;50.364;14.874;2022-09-16T04:45:03;5.75;;;2.28;;
66546;SDS011;53400;50.364;14.874;2022-09-16T04:47:29;5.80;;;2.78;;
66546;SDS011;53400;50.364;14.874;2022-09-16T04:49:55;6.22;;;2.50;;
66546;SDS011;53400;50.364;14.874;2022-09-16T04:52:21;6.07;;;2.40;;
66546;SDS011;53400;50.364;14.874;2022-09-16T04:54:47;5.40;;;2.42;;
66546;SDS011;53400;50.364;14.874;2022-09-16T04:57:13;7.20;;;2.70;;
66546;SDS011;53400;50.364;14.874;2022-09-16T04:59:39;7.22;;;3.10;;
66546;SDS011;53400;50.364;14.874;2022-09-16T05:02:06;7.05;;;2.90;;
66546;SDS011;53400;50.364;14.874;2022-09-16T05:04:32;5.38;;;2.90;;
66546;SDS011;53400;50.364;14.874;2022-09-16T05:06:58;6.47;;;2.88;;
66546;SDS011;53400;50.364;14.874;2022-09-16T05:09:23;5.68;;;3.15;;
66546;SDS011;53400;50.364;14.874;2022-09-16T05:11:50;6.70;;;2.90;;
66546;SDS011;53400;50.364;14.874;2022-09-16T05:14:17;5.85;;;3.05;;
66546;SDS011;53400;50.364;14.874;2022-09-16T05:16:43;7.85;;;3.10;;
66546;SDS011;53400;50.364;14.874;2022-09-16T05:19:12;7.80;;;2.97;;
66546;SDS011;53400;50.364;14.874;2022-09-16T05:21:38;7.03;;;3.03;;
66546;SDS011;53400;50.364;14.874;2022-09-16T05:24:06;6.68;;;3.10;;
66546;SDS011;53400;50.364;14.874;2022-09-16T05:26:33;6.95;;;3.10;;
66546;SDS011;53400;50.364;14.874;2022-09-16T05:29:01;7.13;;;2.95;;
66546;SDS011;53400;50.364;14.874;2022-09-16T05:31:29;6.50;;;3.20;;
66546;SDS011;53400;50.364;14.874;2022-09-16T05:33:57;7.32;;;3.00;;
66546;SDS011;53400;50.364;14.874;2022-09-16T05:36:26;6.03;;;3.17;;
66546;SDS011;53400;50.364;14.874;2022-09-16T05:38:53;7.22;;;2.92;;
66546;SDS011;53400;50.364;14.874;2022-09-16T05:41:20;7.20;;;3.10;;
66546;SDS011;53400;50.364;14.874;2022-09-16T05:43:46;7.65;;;2.90;;
66546;SDS011;53400;50.364;14.874;2022-09-16T05:46:15;7.10;;;3.25;;
66546;SDS011;53400;50.364;14.874;2022-09-16T05:48:43;7.30;;;3.10;;
66546;SDS011;53400;50.364;14.874;2022-09-16T05:51:09;6.68;;;3.08;;
66546;SDS011;53400;50.364;14.874;2022-09-16T05:53:39;8.70;;;3.40;;
66546;SDS011;53400;50.364;14.874;2022-09-16T05:56:06;8.10;;;3.00;;
66546;SDS011;53400;50.364;14.874;2022-09-16T05:58:34;7.53;;;3.28;;
66546;SDS011;53400;50.364;14.874;2022-09-16T06:01:01;6.72;;;2.97;;
66546;SDS011;53400;50.364;14.874;2022-09-16T06:03:29;7.70;;;3.55;;
66546;SDS011;53400;50.364;14.874;2022-09-16T06:05:59;6.82;;;4.22;;
66546;SDS011;53400;50.364;14.874;2022-09-16T06:08:25;8.70;;;3.38;;
66546;SDS011;53400;50.364;14.874;2022-09-16T06:10:54;7.30;;;3.40;;
66546;SDS011;53400;50.364;14.874;2022-09-16T06:13:20;7.40;;;3.08;;
66546;SDS011;53400;50.364;14.874;2022-09-16T06:15:47;7.30;;;3.65;;
66546;SDS011;53400;50.364;14.874;2022-09-16T06:18:15;8.80;;;3.53;;
66546;SDS011;53400;50.364;14.874;2022-09-16T06:20:41;6.85;;;3.60;;
66546;SDS011;53400;50.364;14.874;2022-09-16T06:23:07;5.63;;;2.97;;
66546;SDS011;53400;50.364;14.874;2022-09-16T06:25:33;6.40;;;3.38;;
66546;SDS011;53400;50.364;14.874;2022-09-16T06:28:00;6.63;;;3.35;;
66546;SDS011;53400;50.364;14.874;2022-09-16T06:30:26;6.03;;;3.13;;
66546;SDS011;53400;50.364;14.874;2022-09-16T06:32:52;8.73;;;3.30;;
66546;SDS011;53400;50.364;14.874;2022-09-16T06:35:18;8.35;;;3.45;;
66546;SDS011;53400;50.364;14.874;2022-09-16T06:37:44;6.40;;;3.30;;
66546;SDS011;53400;50.364;14.874;2022-09-16T06:40:10;7.47;;;3.97;;
66546;SDS011;53400;50.364;14.874;2022-09-16T06:42:36;8.80;;;3.92;;
66546;SDS011;53400;50.364;14.874;2022-09-16T06:45:03;6.85;;;3.33;;
66546;SDS011;53400;50.364;14.874;2022-09-16T06:47:31;6.28;;;3.35;;
66546;SDS011;53400;50.364;14.874;2022-09-16T06:49:57;6.80;;;3.38;;
66546;SDS011;53400;50.364;14.874;2022-09-16T06:52:23;7.03;;;3.60;;
66546;SDS011;53400;50.364;14.874;2022-09-16T06:54:49;5.95;;;3.22;;
66546;SDS011;53400;50.364;14.874;2022-09-16T06:57:15;7.15;;;3.45;;
66546;SDS011;53400;50.364;14.874;2022-09-16T06:59:42;8.45;;;3.08;;
66546;SDS011;53400;50.364;14.874;2022-09-16T07:02:10;6.85;;;3.10;;
66546;SDS011;53400;50.364;14.874;2022-09-16T07:04:36;6.95;;;3.50;;
66546;SDS011;53400;50.364;14.874;2022-09-16T07:07:02;5.90;;;2.72;;
66546;SDS011;53400;50.364;14.874;2022-09-16T07:09:28;4.90;;;2.70;;
66546;SDS011;53400;50.364;14.874;2022-09-16T07:11:54;5.40;;;2.58;;
66546;SDS011;53400;50.364;14.874;2022-09-16T07:14:21;7.95;;;2.92;;
66546;SDS011;53400;50.364;14.874;2022-09-16T07:16:47;5.05;;;2.50;;
66546;SDS011;53400;50.364;14.874;2022-09-16T07:19:14;6.25;;;2.55;;
66546;SDS011;53400;50.364;14.874;2022-09-16T07:21:40;5.32;;;2.30;;
66546;SDS011;53400;50.364;14.874;2022-09-16T07:24:08;6.25;;;2.25;;
66546;SDS011;53400;50.364;14.874;2022-09-16T07:26:36;6.07;;;2.30;;
66546;SDS011;53400;50.364;14.874;2022-09-16T07:29:05;5.20;;;2.20;;
66546;SDS011;53400;50.364;14.874;2022-09-16T07:31:32;5.28;;;2.08;;
66546;SDS011;53400;50.364;14.874;2022-09-16T07:34:00;6.72;;;2.22;;
66546;SDS011;53400;50.364;14.874;2022-09-16T07:36:29;4.80;;;2.33;;
66546;SDS011;53400;50.364;14.874;2022-09-16T07:38:59;5.70;;;2.20;;
66546;SDS011;53400;50.364;14.874;2022-09-16T07:41:25;4.85;;;2.42;;
66546;SDS011;53400;50.364;14.874;2022-09-16T07:43:53;6.82;;;2.70;;
66546;SDS011;53400;50.364;14.874;2022-09-16T07:46:20;4.75;;;1.80;;
66546;SDS011;53400;50.364;14.874;2022-09-16T07:48:47;5.72;;;1.98;;
66546;SDS011;53400;50.364;14.874;2022-09-16T07:51:14;5.22;;;2.20;;
66546;SDS011;53400;50.364;14.874;2022-09-16T07:53:43;5.97;;;2.15;;
66546;SDS011;53400;50.364;14.874;2022-09-16T07:56:10;5.13;;;2.15;;
66546;SDS011;53400;50.364;14.874;2022-09-16T07:58:38;6.13;;;1.83;;
66546;SDS011;53400;50.364;14.874;2022-09-16T08:01:05;4.55;;;1.80;;
66546;SDS011;53400;50.364;14.874;2022-09-16T08:03:32;4.45;;;2.17;;
66546;SDS011;53400;50.364;14.874;2022-09-16T08:05:59;7.00;;;2.00;;
66546;SDS011;53400;50.364;14.874;2022-09-16T08:08:25;5.00;;;1.85;;
66546;SDS011;53400;50.364;14.874;2022-09-16T08:10:53;5.57;;;2.05;;
66546;SDS011;53400;50.364;14.874;2022-09-16T08:13:19;4.72;;;1.80;;
66546;SDS011;53400;50.364;14.874;2022-09-16T08:15:46;4.82;;;2.00;;
66546;SDS011;53400;50.364;14.874;2022-09-16T08:18:12;6.47;;;2.30;;
66546;SDS011;53400;50.364;14.874;2022-09-16T08:20:39;5.88;;;2.38;;
66546;SDS011;53400;50.364;14.874;2022-09-16T08:23:05;5.75;;;2.10;;
66546;SDS011;53400;50.364;14.874;2022-09-16T08:25:32;5.18;;;2.22;;
66546;SDS011;53400;50.364;14.874;2022-09-16T08:27:59;7.45;;;2.67;;
66546;SDS011;53400;50.364;14.874;2022-09-16T08:30:26;5.75;;;2.70;;
66546;SDS011;53400;50.364;14.874;2022-09-16T08:32:54;6.78;;;2.78;;
66546;SDS011;53400;50.364;14.874;2022-09-16T08:35:21;7.03;;;2.60;;
66546;SDS011;53400;50.364;14.874;2022-09-16T08:37:47;5.45;;;2.15;;
66546;SDS011;53400;50.364;14.874;2022-09-16T08:40:14;6.82;;;2.10;;
66546;SDS011;53400;50.364;14.874;2022-09-16T08:42:44;5.07;;;2.38;;
66546;SDS011;53400;50.364;14.874;2022-09-16T08:45:23;5.90;;;2.45;;
66546;SDS011;53400;50.364;14.874;2022-09-16T08:47:57;4.93;;;2.45;;
66546;SDS011;53400;50.364;14.874;2022-09-16T08:50:33;4.85;;;2.70;;
66546;SDS011;53400;50.364;14.874;2022-09-16T08:53:04;6.75;;;2.70;;
66546;SDS011;53400;50.364;14.874;2022-09-16T08:55:36;5.88;;;2.53;;
66546;SDS011;53400;50.364;14.874;2022-09-16T08:58:09;6.47;;;3.05;;
66546;SDS011;53400;50.364;14.874;2022-09-16T09:00:42;5.55;;;2.78;;
66546;SDS011;53400;50.364;14.874;2022-09-16T09:03:14;4.68;;;2.53;;
66546;SDS011;53400;50.364;14.874;2022-09-16T09:05:45;4.82;;;2.90;;
66546;SDS011;53400;50.364;14.874;2022-09-16T09:08:21;4.97;;;3.00;;
66546;SDS011;53400;50.364;14.874;2022-09-16T09:11:00;8.80;;;2.90;;
66546;SDS011;53400;50.364;14.874;2022-09-16T09:13:37;5.55;;;3.13;;
66546;SDS011;53400;50.364;14.874;2022-09-16T09:16:21;4.95;;;2.42;;
66546;SDS011;53400;50.364;14.874;2022-09-16T09:18:59;5.60;;;2.70;;
66546;SDS011;53400;50.364;14.874;2022-09-16T09:21:35;5.18;;;2.67;;
66546;SDS011;53400;50.364;14.874;2022-09-16T09:24:24;5.65;;;2.53;;
66546;SDS011;53400;50.364;14.874;2022-09-16T09:27:01;5.15;;;2.20;;
66546;SDS011;53400;50.364;14.874;2022-09-16T09:29:41;7.00;;;2.40;;
66546;SDS011;53400;50.364;14.874;2022-09-16T09:32:29;5.43;;;2.35;;
66546;SDS011;53400;50.364;14.874;2022-09-16T09:35:09;4.38;;;2.20;;
66546;SDS011;53400;50.364;14.874;2022-09-16T09:38:05;5.28;;;2.63;;
66546;SDS011;53400;50.364;14.874;2022-09-16T09:40:48;3.85;;;1.90;;
66546;SDS011;53400;50.364;14.874;2022-09-16T09:43:19;5.03;;;2.20;;
66546;SDS011;53400;50.364;14.874;2022-09-16T09:45:52;7.30;;;2.47;;
66546;SDS011;53400;50.364;14.874;2022-09-16T09:48:28;5.75;;;2.45;;
66546;SDS011;53400;50.364;14.874;2022-09-16T09:51:00;4.15;;;2.40;;
66546;SDS011;53400;50.364;14.874;2022-09-16T09:53:34;5.78;;;2.30;;
66546;SDS011;53400;50.364;14.874;2022-09-16T09:56:07;4.00;;;2.25;;
66546;SDS011;53400;50.364;14.874;2022-09-16T09:58:42;5.30;;;2.50;;
66546;SDS011;53400;50.364;14.874;2022-09-16T10:01:13;6.30;;;2.53;;
66546;SDS011;53400;50.364;14.874;2022-09-16T10:03:41;4.68;;;1.90;;
66546;SDS011;53400;50.364;14.874;2022-09-16T10:06:09;4.65;;;2.28;;
66546;SDS011;53400;50.364;14.874;2022-09-16T10:08:37;5.00;;;2.40;;
66546;SDS011;53400;50.364;14.874;2022-09-16T10:11:14;6.05;;;2.42;;
66546;SDS011;53400;50.364;14.874;2022-09-16T10:13:46;5.32;;;2.47;;
66546;SDS011;53400;50.364;14.874;2022-09-16T10:16:13;7.07;;;2.50;;
66546;SDS011;53400;50.364;14.874;2022-09-16T10:18:43;5.65;;;1.80;;
66546;SDS011;53400;50.364;14.874;2022-09-16T10:21:10;4.60;;;2.22;;
66546;SDS011;53400;50.364;14.874;2022-09-16T10:23:38;5.88;;;2.40;;
66546;SDS011;53400;50.364;14.874;2022-09-16T10:26:05;3.60;;;1.95;;
66546;SDS011;53400;50.364;14.874;2022-09-16T10:28:51;4.78;;;1.98;;
66546;SDS011;53400;50.364;14.874;2022-09-16T10:31:18;4.05;;;1.95;;
66546;SDS011;53400;50.364;14.874;2022-09-16T10:33:45;6.88;;;2.30;;
66546;SDS011;53400;50.364;14.874;2022-09-16T10:36:16;5.40;;;2.38;;
66546;SDS011;53400;50.364;14.874;2022-09-16T10:38:45;4.53;;;2.30;;
66546;SDS011;53400;50.364;14.874;2022-09-16T10:41:15;4.47;;;1.85;;
66546;SDS011;53400;50.364;14.874;2022-09-16T10:43:45;3.92;;;1.60;;
66546;SDS011;53400;50.364;14.874;2022-09-16T10:46:15;3.75;;;1.33;;
66546;SDS011;53400;50.364;14.874;2022-09-16T10:48:43;3.85;;;1.33;;
66546;SDS011;53400;50.364;14.874;2022-09-16T10:51:20;3.30;;;1.45;;
66546;SDS011;53400;50.364;14.874;2022-09-16T10:53:50;3.38;;;1.25;;
66546;SDS011;53400;50.364;14.874;2022-09-16T10:56:19;3.15;;;1.40;;
66546;SDS011;53400;50.364;14.874;2022-09-16T10:58:48;4.75;;;1.95;;
66546;SDS011;53400;50.364;14.874;2022-09-16T11:01:24;2.95;;;1.15;;
66546;SDS011;53400;50.364;14.874;2022-09-16T11:04:07;3.13;;;1.08;;
66546;SDS011;53400;50.364;14.874;2022-09-16T11:06:50;3.45;;;0.80;;
66546;SDS011;53400;50.364;14.874;2022-09-16T11:09:26;5.38;;;1.00;;
66546;SDS011;53400;50.364;14.874;2022-09-16T11:12:04;1.35;;;0.80;;
66546;SDS011;53400;50.364;14.874;2022-09-16T11:14:44;2.20;;;0.80;;
66546;SDS011;53400;50.364;14.874;2022-09-16T11:17:18;2.65;;;0.60;;
66546;SDS011;53400;50.364;14.874;2022-09-16T11:19:57;2.08;;;0.82;;
66546;SDS011;53400;50.364;14.874;2022-09-16T11:22:44;0.65;;;0.43;;
66546;SDS011;53400;50.364;14.874;2022-09-16T11:25:22;1.08;;;0.60;;
66546;SDS011;53400;50.364;14.874;2022-09-16T11:27:57;0.70;;;0.40;;
66546;SDS011;53400;50.364;14.874;2022-09-16T11:30:46;2.85;;;0.70;;
66546;SDS011;53400;50.364;14.874;2022-09-16T11:33:22;1.23;;;0.60;;
66546;SDS011;53400;50.364;14.874;2022-09-16T11:36:09;1.23;;;0.50;;
66546;SDS011;53400;50.364;14.874;2022-09-16T11:38:55;1.05;;;0.60;;
66546;SDS011;53400;50.364;14.874;2022-09-16T11:41:31;1.45;;;0.80;;
66546;SDS011;53400;50.364;14.874;2022-09-16T11:44:07;1.67;;;0.90;;
66546;SDS011;53400;50.364;14.874;2022-09-16T11:46:47;0.82;;;0.65;;
66546;SDS011;53400;50.364;14.874;2022-09-16T11:49:26;1.65;;;0.70;;
66546;SDS011;53400;50.364;14.874;2022-09-16T11:52:08;1.83;;;0.90;;
66546;SDS011;53400;50.364;14.874;2022-09-16T11:54:52;1.98;;;1.10;;
66546;SDS011;53400;50.364;14.874;2022-09-16T11:57:43;2.13;;;0.93;;
66546;SDS011;53400;50.364;14.874;2022-09-16T12:00:16;1.55;;;0.90;;
66546;SDS011;53400;50.364;14.874;2022-09-16T12:02:44;2.03;;;0.90;;
66546;SDS011;53400;50.364;14.874;2022-09-16T12:05:18;2.05;;;0.90;;
66546;SDS011;53400;50.364;14.874;2022-09-16T12:07:49;2.80;;;1.00;;
66546;SDS011;53400;50.364;14.874;2022-09-16T12:10:23;2.72;;;1.00;;
66546;SDS011;53400;50.364;14.874;2022-09-16T12:12:54;1.95;;;0.90;;
66546;SDS011;53400;50.364;14.874;2022-09-16T12:15:27;1.73;;;0.88;;
66546;SDS011;53400;50.364;14.874;2022-09-16T12:18:00;2.42;;;1.10;;
66546;SDS011;53400;50.364;14.874;2022-09-16T12:20:34;2.55;;;0.90;;
66546;SDS011;53400;50.364;14.874;2022-09-16T12:23:07;1.63;;;0.90;;
66546;SDS011;53400;50.364;14.874;2022-09-16T12:25:44;1.95;;;1.30;;
66546;SDS011;53400;50.364;14.874;2022-09-16T12:28:21;3.67;;;1.25;;
66546;SDS011;53400;50.364;14.874;2022-09-16T12:30:52;1.80;;;0.93;;
66546;SDS011;53400;50.364;14.874;2022-09-16T12:33:28;2.35;;;0.95;;
66546;SDS011;53400;50.364;14.874;2022-09-16T12:36:01;1.92;;;0.85;;
66546;SDS011;53400;50.364;14.874;2022-09-16T12:38:30;4.28;;;2.45;;
66546;SDS011;53400;50.364;14.874;2022-09-16T12:41:08;3.72;;;1.20;;
66546;SDS011;53400;50.364;14.874;2022-09-16T12:44:09;2.90;;;1.08;;
66546;SDS011;53400;50.364;14.874;2022-09-16T12:46:54;3.97;;;1.30;;
66546;SDS011;53400;50.364;14.874;2022-09-16T12:49:41;2.17;;;1.10;;
66546;SDS011;53400;50.364;14.874;2022-09-16T12:52:31;3.03;;;1.10;;
66546;SDS011;53400;50.364;14.874;2022-09-16T12:58:23;1.48;;;0.80;;
66546;SDS011;53400;50.364;14.874;2022-09-16T13:03:40;3.75;;;1.17;;
66546;SDS011;53400;50.364;14.874;2022-09-16T13:06:15;2.03;;;1.00;;
66546;SDS011;53400;50.364;14.874;2022-09-16T13:08:46;3.30;;;1.00;;
66546;SDS011;53400;50.364;14.874;2022-09-16T13:11:15;2.65;;;1.00;;
66546;SDS011;53400;50.364;14.874;2022-09-16T13:13:46;1.48;;;0.90;;
66546;SDS011;53400;50.364;14.874;2022-09-16T13:16:25;3.17;;;0.93;;
66546;SDS011;53400;50.364;14.874;2022-09-16T13:19:02;1.83;;;0.80;;
66546;SDS011;53400;50.364;14.874;2022-09-16T13:21:53;2.55;;;1.20;;
66546;SDS011;53400;50.364;14.874;2022-09-16T13:24:23;2.55;;;1.00;;
66546;SDS011;53400;50.364;14.874;2022-09-16T13:26:54;2.58;;;0.90;;
66546;SDS011;53400;50.364;14.874;2022-09-16T13:32:24;3.38;;;1.20;;
66546;SDS011;53400;50.364;14.874;2022-09-16T13:35:04;2.55;;;1.08;;
66546;SDS011;53400;50.364;14.874;2022-09-16T13:37:46;3.40;;;1.30;;
66546;SDS011;53400;50.364;14.874;2022-09-16T13:40:17;4.78;;;1.30;;
66546;SDS011;53400;50.364;14.874;2022-09-16T13:42:44;4.13;;;1.45;;
66546;SDS011;53400;50.364;14.874;2022-09-16T13:45:31;2.75;;;1.30;;
66546;SDS011;53400;50.364;14.874;2022-09-16T13:47:58;3.60;;;1.30;;
66546;SDS011;53400;50.364;14.874;2022-09-16T13:50:31;2.35;;;1.00;;
66546;SDS011;53400;50.364;14.874;2022-09-16T13:53:07;2.20;;;1.10;;
66546;SDS011;53400;50.364;14.874;2022-09-16T13:55:34;3.38;;;1.15;;
66546;SDS011;53400;50.364;14.874;2022-09-16T13:58:06;2.40;;;1.05;;
66546;SDS011;53400;50.364;14.874;2022-09-16T14:00:44;1.83;;;0.80;;
66546;SDS011;53400;50.364;14.874;2022-09-16T14:03:24;3.03;;;1.00;;
66546;SDS011;53400;50.364;14.874;2022-09-16T14:06:04;4.20;;;1.10;;
66546;SDS011;53400;50.364;14.874;2022-09-16T14:08:56;2.15;;;1.10;;
66546;SDS011;53400;50.364;14.874;2022-09-16T14:11:26;4.10;;;1.13;;
66546;SDS011;53400;50.364;14.874;2022-09-16T14:14:00;2.38;;;1.02;;
66546;SDS011;53400;50.364;14.874;2022-09-16T14:16:29;3.58;;;1.25;;
66546;SDS011;53400;50.364;14.874;2022-09-16T14:19:00;4.00;;;1.30;;
66546;SDS011;53400;50.364;14.874;2022-09-16T14:21:29;2.60;;;1.00;;
66546;SDS011;53400;50.364;14.874;2022-09-16T14:24:05;2.20;;;0.90;;
66546;SDS011;53400;50.364;14.874;2022-09-16T14:26:32;1.98;;;1.00;;
66546;SDS011;53400;50.364;14.874;2022-09-16T14:29:00;2.28;;;1.00;;
66546;SDS011;53400;50.364;14.874;2022-09-16T14:31:30;1.98;;;1.05;;
66546;SDS011;53400;50.364;14.874;2022-09-16T14:33:58;1.50;;;0.90;;
66546;SDS011;53400;50.364;14.874;2022-09-16T14:36:29;2.70;;;0.90;;
66546;SDS011;53400;50.364;14.874;2022-09-16T14:38:57;2.28;;;1.02;;
66546;SDS011;53400;50.364;14.874;2022-09-16T14:41:28;1.80;;;0.90;;
66546;SDS011;53400;50.364;14.874;2022-09-16T14:43:58;1.73;;;0.90;;
66546;SDS011;53400;50.364;14.874;2022-09-16T14:46:39;2.75;;;1.17;;
66546;SDS011;53400;50.364;14.874;2022-09-16T14:49:07;4.25;;;1.40;;
66546;SDS011;53400;50.364;14.874;2022-09-16T14:51:35;2.85;;;1.30;;
66546;SDS011;53400;50.364;14.874;2022-09-16T14:54:04;4.45;;;1.00;;
66546;SDS011;53400;50.364;14.874;2022-09-16T14:56:30;2.97;;;1.23;;
66546;SDS011;53400;50.364;14.874;2022-09-16T14:58:59;2.67;;;1.13;;
66546;SDS011;53400;50.364;14.874;2022-09-16T15:01:26;3.28;;;1.02;;
66546;SDS011;53400;50.364;14.874;2022-09-16T15:03:54;3.05;;;1.20;;
66546;SDS011;53400;50.364;14.874;2022-09-16T15:06:27;2.03;;;1.05;;
66546;SDS011;53400;50.364;14.874;2022-09-16T15:08:58;1.90;;;1.00;;